»·PEaware :: N790DL KRNM-KVCB

N790DL :: KRNM-KVCB

FLIGHT INFORMATION

Flight Status: Arrived
Operator: Privately registered:
United States
More flights under this callsign
Pilot: Keith B. (30325)
Aircraft: BEECH AIRCRAFT DEBONAIR BONANZA
(BE33)
More flights by this aircraft type
Origin: KRNM Ramona
United States
Destination: KVCB Nut Tree
United States
More flights between these airports :: More routes between these airports
Route: KRNM OCN VPOCN VPSMP SLI DODGR JEFFY GMN AVE PXN RBLEW GIFME SAC KEDU KVCB
File this flight plan on PilotEdge
Remarks:
Altitude:
(Current/Filed)
10,500ft
Speed:
(Current/Filed)
150kts
Departed: 03-Nov-20 03:36 PM
Arrived: 03-Nov-20 06:14 PM
Distance/Time
Traveled:
404nm/2:37
Distance/Time
To Go:
Arrived

Flight Plot

Page will automatically refresh every two minutes.

Flight plan parsing failed; only flown route is shown


Map Options




Map Legend


Flown Route
Filed Route
Departure Airport
Arrival Airport
Navaid (VOR, NDB)
Fix

Horizontal Profiles

Position Reports

Time Latitude Longitude Heading Altitude Ground
Speed
03-Nov-20 15:24 33.037217 -116.910141 188 1396ft 0kts
03-Nov-20 15:25 33.037217 -116.910141 188 1396ft 0kts
03-Nov-20 15:27 33.037217 -116.910141 188 1396ft 0kts
03-Nov-20 15:28 33.037217 -116.910141 188 1396ft 0kts
03-Nov-20 15:29 33.037217 -116.910141 188 1396ft 0kts
03-Nov-20 15:30 33.037217 -116.910141 188 1396ft 0kts
03-Nov-20 15:31 33.036968 -116.909557 99 1396ft 7kts
03-Nov-20 15:32 33.037206 -116.907737 94 1395ft 6kts
03-Nov-20 15:33 33.037457 -116.907394 10 1397ft 0kts
03-Nov-20 15:34 33.037457 -116.907394 10 1397ft 0kts
03-Nov-20 15:35 33.037457 -116.907394 10 1397ft 0kts
03-Nov-20 15:36 33.039748 -116.919488 278 1629ft 83kts
03-Nov-20 15:37 33.049179 -116.945813 298 2670ft 93kts
03-Nov-20 15:38 33.061818 -116.973784 294 3633ft 98kts
03-Nov-20 15:39 33.073645 -117.002666 294 4483ft 104kts
03-Nov-20 15:40 33.090146 -117.042760 295 4513ft 156kts
03-Nov-20 15:41 33.109070 -117.090808 294 4649ft 165kts
03-Nov-20 15:42 33.129242 -117.141108 295 4834ft 166kts
03-Nov-20 15:42 33.146001 -117.182867 295 4947ft 167kts
03-Nov-20 15:44 33.169567 -117.241697 295 5056ft 169kts
03-Nov-20 15:44 33.182829 -117.283251 285 5720ft 156kts
03-Nov-20 15:46 33.206184 -117.334279 297 6157ft 180kts
03-Nov-20 15:46 33.223849 -117.374654 292 6318ft 180kts
03-Nov-20 15:47 33.239746 -117.430458 265 6480ft 181kts
03-Nov-20 15:48 33.263857 -117.480580 323 6469ft 185kts
03-Nov-20 15:49 33.301273 -117.522579 317 6473ft 185kts
03-Nov-20 15:50 33.337918 -117.565427 315 6481ft 187kts
03-Nov-20 15:51 33.374269 -117.608973 312 6482ft 190kts
03-Nov-20 15:52 33.412714 -117.650734 320 6536ft 183kts
03-Nov-20 15:53 33.449717 -117.690055 321 7075ft 156kts
03-Nov-20 15:54 33.478566 -117.720613 316 8059ft 129kts
03-Nov-20 15:55 33.505408 -117.751350 321 8648ft 138kts
03-Nov-20 15:56 33.535034 -117.783589 318 9203ft 139kts
03-Nov-20 15:57 33.564451 -117.814956 317 9719ft 140kts
03-Nov-20 15:58 33.593425 -117.846650 318 10205ft 142kts
03-Nov-20 15:59 33.622474 -117.878561 317 10480ft 144kts
03-Nov-20 16:00 33.653653 -117.912682 317 10481ft 158kts
03-Nov-20 16:01 33.686793 -117.948965 318 10475ft 164kts
03-Nov-20 16:02 33.720938 -117.986354 318 10462ft 168kts
03-Nov-20 16:03 33.755223 -118.024906 318 10459ft 169kts
03-Nov-20 16:04 33.790759 -118.061734 332 10454ft 168kts
03-Nov-20 16:05 33.833838 -118.084584 335 10447ft 169kts
03-Nov-20 16:06 33.874797 -118.108124 335 10444ft 169kts
03-Nov-20 16:07 33.915275 -118.131399 335 10441ft 169kts
03-Nov-20 16:08 33.954881 -118.153761 336 10439ft 169kts
03-Nov-20 16:09 33.998020 -118.177807 336 10435ft 172kts
03-Nov-20 16:10 34.041545 -118.202134 336 10433ft 173kts
03-Nov-20 16:11 34.085209 -118.226496 336 10427ft 173kts
03-Nov-20 16:12 34.128440 -118.250078 336 10491ft 170kts
03-Nov-20 16:13 34.171744 -118.274357 336 10487ft 172kts
03-Nov-20 16:14 34.215058 -118.298635 335 10481ft 171kts
03-Nov-20 16:15 34.258063 -118.322825 334 10480ft 170kts
03-Nov-20 16:16 34.300775 -118.346856 334 10491ft 169kts
03-Nov-20 16:17 34.343387 -118.370830 334 10491ft 169kts
03-Nov-20 16:18 34.386084 -118.394904 334 10497ft 169kts
03-Nov-20 16:19 34.428761 -118.419010 334 10495ft 169kts
03-Nov-20 16:20 34.471360 -118.443073 334 10500ft 169kts
03-Nov-20 16:21 34.514127 -118.467088 334 10504ft 169kts
03-Nov-20 16:22 34.556722 -118.491195 334 10501ft 169kts
03-Nov-20 16:23 34.599376 -118.515390 334 10507ft 169kts
03-Nov-20 16:24 34.642123 -118.539904 334 10505ft 170kts
03-Nov-20 16:25 34.685076 -118.564329 334 10507ft 170kts
03-Nov-20 16:26 34.727848 -118.588639 334 10522ft 170kts
03-Nov-20 16:27 34.757230 -118.628833 278 10551ft 168kts
03-Nov-20 16:28 34.766136 -118.684479 284 10631ft 167kts
03-Nov-20 16:29 34.776513 -118.732734 284 10649ft 168kts
03-Nov-20 16:30 34.789791 -118.794845 284 10673ft 169kts
03-Nov-20 16:31 34.801633 -118.850425 284 10644ft 170kts
03-Nov-20 16:32 34.829055 -118.896106 315 10593ft 171kts
03-Nov-20 16:33 34.862058 -118.938279 312 10569ft 171kts
03-Nov-20 16:34 34.894522 -118.980764 312 10537ft 171kts
03-Nov-20 16:35 34.926916 -119.023147 312 10511ft 171kts
03-Nov-20 16:36 34.959653 -119.066075 312 10492ft 171kts
03-Nov-20 16:37 34.991949 -119.108441 312 10489ft 171kts
03-Nov-20 16:38 35.024242 -119.150869 312 10485ft 170kts
03-Nov-20 16:39 35.056520 -119.193300 312 10483ft 170kts
03-Nov-20 16:40 35.088611 -119.235603 312 10480ft 169kts
03-Nov-20 16:41 35.120460 -119.277611 312 10522ft 168kts
03-Nov-20 16:42 35.152411 -119.319793 312 10523ft 170kts
03-Nov-20 16:43 35.184446 -119.362163 312 10521ft 170kts
03-Nov-20 16:44 35.216559 -119.404670 312 10513ft 170kts
03-Nov-20 16:45 35.248507 -119.446988 312 10509ft 170kts
03-Nov-20 16:46 35.280489 -119.489423 313 10507ft 170kts
03-Nov-20 16:47 35.312606 -119.532121 313 10506ft 170kts
03-Nov-20 16:48 35.344114 -119.574061 312 10502ft 170kts
03-Nov-20 16:49 35.376179 -119.616748 313 10496ft 170kts
03-Nov-20 16:50 35.408218 -119.659473 312 10526ft 168kts
03-Nov-20 16:51 35.439796 -119.701671 312 10535ft 169kts
03-Nov-20 16:52 35.471545 -119.744090 312 10532ft 169kts
03-Nov-20 16:53 35.503464 -119.786830 312 10529ft 169kts
03-Nov-20 16:54 35.533617 -119.827256 312 10518ft 170kts
03-Nov-20 16:55 35.567127 -119.872222 312 10510ft 169kts
03-Nov-20 16:56 35.598913 -119.914957 312 10507ft 169kts
03-Nov-20 16:57 35.630536 -119.957458 312 10497ft 169kts
03-Nov-20 16:58 35.665731 -119.994927 332 10491ft 169kts
03-Nov-20 16:59 35.706590 -120.023531 328 10487ft 169kts
03-Nov-20 17:00 35.746783 -120.053224 329 10491ft 168kts
03-Nov-20 17:01 35.786942 -120.082931 329 10491ft 168kts
03-Nov-20 17:02 35.827234 -120.112747 329 10483ft 169kts
03-Nov-20 17:03 35.867371 -120.142517 329 10481ft 169kts
03-Nov-20 17:04 35.907678 -120.172415 328 10480ft 169kts
03-Nov-20 17:05 35.947854 -120.202264 328 10475ft 169kts
03-Nov-20 17:06 35.987344 -120.231624 329 10483ft 168kts
03-Nov-20 17:07 36.028213 -120.262080 328 10477ft 169kts
03-Nov-20 17:08 36.068477 -120.291720 328 10474ft 168kts
03-Nov-20 17:09 36.108678 -120.321716 328 10516ft 166kts
03-Nov-20 17:10 36.148300 -120.351337 328 10530ft 168kts
03-Nov-20 17:11 36.188376 -120.381325 328 10528ft 168kts
03-Nov-20 17:12 36.228525 -120.411410 328 10525ft 168kts
03-Nov-20 17:13 36.268654 -120.441488 328 10521ft 169kts
03-Nov-20 17:14 36.308741 -120.471892 328 10526ft 168kts
03-Nov-20 17:15 36.346594 -120.500362 328 10520ft 169kts
03-Nov-20 17:16 36.388976 -120.532263 328 10519ft 169kts
03-Nov-20 17:17 36.429196 -120.562588 328 10514ft 169kts
03-Nov-20 17:18 36.469564 -120.593041 328 10511ft 169kts
03-Nov-20 17:19 36.509700 -120.623374 328 10509ft 169kts
03-Nov-20 17:20 36.549971 -120.653842 327 10520ft 168kts
03-Nov-20 17:21 36.589949 -120.684147 327 10534ft 169kts
03-Nov-20 17:23 36.630150 -120.714603 327 10530ft 169kts
03-Nov-20 17:24 36.670579 -120.745278 327 10507ft 170kts
03-Nov-20 17:25 36.710866 -120.775940 327 10511ft 170kts
03-Nov-20 17:26 36.753172 -120.802353 333 10507ft 170kts
03-Nov-20 17:27 36.795754 -120.828170 332 10512ft 170kts
03-Nov-20 17:28 36.838344 -120.854084 332 10510ft 170kts
03-Nov-20 17:29 36.879294 -120.879020 332 10512ft 170kts
03-Nov-20 17:30 36.912885 -120.899552 332 10520ft 170kts
03-Nov-20 17:31 36.964786 -120.932175 334 10563ft 169kts
03-Nov-20 17:32 37.007454 -120.957942 332 10506ft 171kts
03-Nov-20 17:33 37.050525 -120.984303 332 10491ft 171kts
03-Nov-20 17:34 37.093216 -121.010493 332 10481ft 171kts
03-Nov-20 17:35 37.135530 -121.036449 332 10542ft 169kts
03-Nov-20 17:36 37.177641 -121.062346 332 10538ft 170kts
03-Nov-20 17:36 37.213340 -121.084294 332 10536ft 170kts
03-Nov-20 17:38 37.263061 -121.114930 332 10522ft 171kts
03-Nov-20 17:38 37.298842 -121.137009 332 10520ft 171kts
03-Nov-20 17:40 37.348655 -121.167767 332 10515ft 171kts
03-Nov-20 17:41 37.391200 -121.194096 332 10512ft 171kts
03-Nov-20 17:41 37.426973 -121.216231 332 10510ft 171kts
03-Nov-20 17:43 37.476823 -121.247141 332 10503ft 171kts
03-Nov-20 17:43 37.512757 -121.268489 332 10508ft 171kts
03-Nov-20 17:45 37.561926 -121.299055 331 10533ft 171kts
03-Nov-20 17:45 37.598097 -121.321556 332 10529ft 171kts
03-Nov-20 17:46 37.640867 -121.348224 331 10529ft 172kts
03-Nov-20 17:47 37.683826 -121.374996 331 10522ft 172kts
03-Nov-20 17:48 37.726663 -121.401761 331 10520ft 172kts
03-Nov-20 17:49 37.769673 -121.428683 331 10502ft 173kts
03-Nov-20 17:50 37.812992 -121.455809 331 10468ft 173kts
03-Nov-20 17:51 37.857487 -121.483733 331 10141ft 186kts
03-Nov-20 17:52 37.905145 -121.512594 340 9595ft 195kts
03-Nov-20 17:53 37.958579 -121.524247 346 9058ft 197kts
03-Nov-20 17:54 38.012910 -121.538287 346 8468ft 199kts
03-Nov-20 17:55 38.067480 -121.552289 346 7852ft 200kts
03-Nov-20 17:56 38.121755 -121.566264 346 7373ft 193kts
03-Nov-20 17:57 38.173266 -121.579677 346 7179ft 186kts
03-Nov-20 17:58 38.224021 -121.584901 9 6989ft 187kts
03-Nov-20 17:59 38.275524 -121.575489 4 6738ft 189kts
03-Nov-20 18:00 38.328431 -121.568473 4 6252ft 192kts
03-Nov-20 18:01 38.380960 -121.560893 4 5781ft 191kts
03-Nov-20 18:02 38.432180 -121.554469 352 5310ft 189kts
03-Nov-20 18:03 38.464935 -121.597529 280 4834ft 180kts
03-Nov-20 18:04 38.483222 -121.657987 293 4133ft 187kts
03-Nov-20 18:05 38.505445 -121.717148 293 3556ft 183kts
03-Nov-20 18:06 38.525987 -121.776937 276 2941ft 183kts
03-Nov-20 18:07 38.522887 -121.840872 267 2493ft 170kts
03-Nov-20 18:08 38.497286 -121.875112 200 2485ft 120kts
03-Nov-20 18:09 38.464297 -121.888229 212 2443ft 132kts
03-Nov-20 18:10 38.432176 -121.914762 214 1525ft 131kts
03-Nov-20 18:11 38.408822 -121.935134 213 1035ft 92kts
03-Nov-20 18:12 38.388626 -121.952280 213 305ft 83kts
03-Nov-20 18:13 38.377243 -121.960698 122 111ft 10kts
03-Nov-20 18:14 38.376766 -121.960320 211 109ft 0kts
03-Nov-20 18:15 38.376766 -121.960320 211 109ft 0kts
03-Nov-20 18:16 38.376766 -121.960320 211 109ft 0kts
03-Nov-20 18:17 38.376766 -121.960320 211 109ft 0kts
03-Nov-20 18:18 38.376766 -121.960320 211 109ft 0kts
03-Nov-20 18:19 38.376766 -121.960320 211 109ft 0kts
03-Nov-20 18:20 38.376766 -121.960320 211 109ft 0kts
03-Nov-20 18:21 38.376766 -121.960320 211 109ft 0kts
03-Nov-20 18:22 38.376766 -121.960320 211 109ft 0kts
03-Nov-20 18:23 38.376766 -121.960320 211 109ft 0kts
03-Nov-20 18:24 38.376766 -121.960320 211 109ft 0kts
03-Nov-20 18:25 38.376766 -121.960320 211 109ft 0kts
03-Nov-20 18:26 38.376765 -121.960321 211 109ft 0kts

Navigation Log

Ident Type
Flight plan parsing failed, navigation log unavailable